Time;durP1;ratioP1;P1;durP2;ratioP2;P2;SDS_P1;SDS_P2;PMS_P1;PMS_P2;Temp;Humidity;BMP_temperature;BMP_pressure;BME280_temperature;BME280_humidity;BME280_pressure;Samples;Min_cycle;Max_cycle;Signal;HPM_P1;HPM_P2
2022/11/02 00:00:43;;;;;;;6.50;2.50;;;8.00;99.90;;;;;;5090947;28;20032;-74
2022/11/02 00:03:09;;;;;;;5.28;2.58;;;8.00;99.90;;;;;;5090566;28;20032;-74
2022/11/02 00:05:35;;;;;;;4.63;2.42;;;8.00;99.90;;;;;;5090358;28;20087;-74
2022/11/02 00:08:00;;;;;;;6.13;2.17;;;7.90;99.90;;;;;;5090983;28;20457;-77
2022/11/02 00:10:26;;;;;;;7.13;2.30;;;7.90;99.90;;;;;;5091697;28;20449;-74
2022/11/02 00:12:52;;;;;;;4.57;1.80;;;7.80;99.90;;;;;;5094773;28;20073;-74
2022/11/02 00:15:18;;;;;;;5.88;2.67;;;7.80;99.90;;;;;;5088785;28;20020;-74
2022/11/02 00:17:51;;;;;;;7.38;2.50;;;7.80;99.90;;;;;;5094547;28;20111;-74
2022/11/02 00:20:18;;;;;;;6.25;2.22;;;7.80;99.90;;;;;;5093258;28;20037;-74
2022/11/02 00:22:47;;;;;;;6.32;2.30;;;7.60;99.90;;;;;;5094605;28;20028;-74
2022/11/02 00:25:15;;;;;;;7.85;2.30;;;7.60;99.90;;;;;;5093099;28;20024;-74
2022/11/02 00:27:41;;;;;;;4.63;2.47;;;7.60;99.90;;;;;;5094153;28;20020;-74
2022/11/02 00:30:08;;;;;;;6.70;2.00;;;7.60;99.90;;;;;;5092825;28;20460;-74
2022/11/02 00:32:34;;;;;;;11.85;2.22;;;7.70;99.90;;;;;;5072431;28;20456;-74
2022/11/02 00:34:59;;;;;;;10.30;2.45;;;7.70;99.90;;;;;;5092973;28;20054;-76
2022/11/02 00:37:25;;;;;;;9.68;2.35;;;7.80;99.90;;;;;;5093740;28;20031;-74
2022/11/02 00:39:50;;;;;;;7.30;1.95;;;7.80;99.90;;;;;;5093205;28;20484;-76
2022/11/02 00:42:16;;;;;;;6.93;2.17;;;7.90;99.90;;;;;;5093328;28;20051;-74
2022/11/02 00:44:42;;;;;;;7.50;1.98;;;8.00;99.90;;;;;;5075493;28;20140;-74
2022/11/02 00:47:07;;;;;;;5.70;1.88;;;8.10;99.90;;;;;;5092006;28;20050;-75
2022/11/02 00:49:33;;;;;;;7.50;1.80;;;8.10;99.90;;;;;;5090392;28;20024;-75
2022/11/02 00:51:58;;;;;;;8.38;1.92;;;8.20;99.90;;;;;;5094068;28;20056;-77
2022/11/02 00:54:24;;;;;;;5.88;1.63;;;8.20;99.90;;;;;;5093093;28;20031;-76
2022/11/02 00:56:50;;;;;;;7.95;1.85;;;8.30;99.90;;;;;;5092992;28;20077;-76
2022/11/02 00:59:15;;;;;;;7.75;1.67;;;8.30;99.90;;;;;;5091583;28;20095;-76
2022/11/02 01:01:46;;;;;;;10.48;1.90;;;8.40;99.90;;;;;;5092953;28;20519;-76
2022/11/02 01:04:16;;;;;;;7.40;1.60;;;8.50;99.90;;;;;;5069387;28;20496;-76
2022/11/02 01:06:42;;;;;;;10.15;1.55;;;8.50;99.90;;;;;;5075086;28;20040;-76
2022/11/02 01:09:08;;;;;;;6.57;1.40;;;8.60;99.90;;;;;;5092199;28;20031;-75
2022/11/02 01:11:34;;;;;;;13.30;1.95;;;8.60;99.90;;;;;;5093305;28;20066;-73
2022/11/02 01:14:00;;;;;;;15.77;2.00;;;8.70;99.90;;;;;;5074602;28;20055;-77
2022/11/02 01:16:26;;;;;;;5.10;1.40;;;8.70;99.90;;;;;;5092591;28;20032;-75
2022/11/02 01:18:52;;;;;;;6.30;1.73;;;8.70;99.90;;;;;;5093584;28;20062;-75
2022/11/02 01:21:18;;;;;;;6.43;1.95;;;8.80;99.90;;;;;;5062490;28;20077;-76
2022/11/02 01:23:44;;;;;;;7.22;1.75;;;8.90;99.90;;;;;;5089692;28;20028;-75
2022/11/02 01:26:10;;;;;;;12.00;1.60;;;8.90;99.90;;;;;;5092660;28;20024;-75
2022/11/02 01:28:36;;;;;;;5.15;1.45;;;8.90;99.90;;;;;;5093002;28;20072;-76
2022/11/02 01:31:02;;;;;;;8.02;1.75;;;9.00;99.90;;;;;;5092117;28;20032;-77
2022/11/02 01:33:28;;;;;;;12.25;1.88;;;9.10;99.90;;;;;;5093040;28;20376;-75
2022/11/02 01:35:55;;;;;;;5.00;1.90;;;9.30;99.90;;;;;;5092297;28;20131;-76
2022/11/02 01:38:21;;;;;;;5.20;1.90;;;9.50;99.90;;;;;;5068254;28;20023;-76
2022/11/02 01:40:46;;;;;;;7.15;1.77;;;9.80;99.90;;;;;;5092071;28;20028;-76
2022/11/02 01:43:33;;;;;;;4.45;1.70;;;9.90;99.90;;;;;;5092195;28;20028;-75
2022/11/02 01:46:11;;;;;;;6.65;1.98;;;10.00;99.90;;;;;;5092419;28;20032;-77
2022/11/02 01:48:39;;;;;;;3.85;1.60;;;10.10;99.90;;;;;;5092833;28;20073;-76
2022/11/02 01:51:11;;;;;;;2.83;1.45;;;10.10;99.90;;;;;;5091709;28;20028;-76
2022/11/02 01:53:43;;;;;;;5.55;1.60;;;10.10;99.90;;;;;;5092919;28;20043;-75
2022/11/02 01:56:13;;;;;;;7.65;1.50;;;10.10;99.90;;;;;;5083002;28;20060;-76
2022/11/02 01:58:39;;;;;;;3.73;1.63;;;10.00;99.90;;;;;;5092905;28;20039;-76
2022/11/02 02:01:05;;;;;;;6.55;1.80;;;10.00;99.90;;;;;;5091336;28;20262;-76
2022/11/02 02:03:32;;;;;;;5.13;1.63;;;10.00;99.90;;;;;;5074690;28;20024;-75
2022/11/02 02:06:08;;;;;;;6.00;1.60;;;9.90;99.90;;;;;;5092385;28;20027;-76
2022/11/02 02:08:38;;;;;;;5.72;2.08;;;9.90;99.90;;;;;;5092836;28;20067;-75
2022/11/02 02:11:27;;;;;;;6.68;1.73;;;9.90;99.90;;;;;;5091850;28;20480;-75
2022/11/02 02:13:56;;;;;;;7.57;2.05;;;9.90;99.90;;;;;;5071099;28;20072;-74
2022/11/02 02:16:39;;;;;;;4.50;1.45;;;9.80;99.90;;;;;;5091607;28;20040;-75
2022/11/02 02:19:26;;;;;;;5.72;1.85;;;9.80;99.90;;;;;;5091663;28;20024;-76
2022/11/02 02:22:24;;;;;;;6.22;1.88;;;9.70;99.90;;;;;;5092980;28;20097;-75
2022/11/02 02:25:05;;;;;;;8.23;2.58;;;9.70;99.90;;;;;;5091664;28;20080;-75
2022/11/02 02:27:58;;;;;;;5.78;2.30;;;9.70;99.90;;;;;;5092436;28;20024;-75
2022/11/02 02:30:25;;;;;;;7.68;2.65;;;9.60;99.90;;;;;;5088352;28;23120;-75
2022/11/02 02:32:55;;;;;;;7.97;2.00;;;9.60;99.90;;;;;;5090040;28;20392;-75
2022/11/02 02:35:27;;;;;;;6.93;2.03;;;9.50;99.90;;;;;;5090807;28;20055;-75
2022/11/02 02:37:54;;;;;;;7.30;2.63;;;9.50;99.90;;;;;;5092059;28;20042;-76
2022/11/02 02:40:29;;;;;;;10.32;2.42;;;9.40;99.90;;;;;;5073192;28;20036;-74
2022/11/02 02:43:17;;;;;;;6.28;2.05;;;9.30;99.90;;;;;;5092184;28;20461;-75
2022/11/02 02:45:49;;;;;;;6.10;2.22;;;9.30;99.90;;;;;;5091578;28;20035;-75
2022/11/02 02:48:18;;;;;;;7.55;2.10;;;9.30;99.90;;;;;;5086021;28;20024;-74
2022/11/02 02:50:55;;;;;;;9.43;2.38;;;9.20;99.90;;;;;;5091795;28;20032;-74
2022/11/02 02:53:29;;;;;;;5.72;1.85;;;9.30;99.90;;;;;;5091290;28;20606;-74
2022/11/02 02:55:59;;;;;;;7.22;2.33;;;9.40;99.90;;;;;;5091300;28;20046;-74
2022/11/02 02:58:30;;;;;;;5.75;2.00;;;9.50;99.90;;;;;;5091308;28;20051;-75
2022/11/02 03:00:58;;;;;;;8.90;1.88;;;9.50;99.90;;;;;;5091098;28;20439;-75
2022/11/02 03:03:27;;;;;;;4.47;1.80;;;9.50;99.90;;;;;;5089734;28;20070;-75
2022/11/02 03:06:17;;;;;;;9.35;2.22;;;9.50;99.90;;;;;;5086630;28;20115;-74
2022/11/02 03:08:49;;;;;;;4.43;1.92;;;9.40;99.90;;;;;;5091591;28;20505;-75
2022/11/02 03:11:18;;;;;;;8.88;1.83;;;9.50;99.90;;;;;;5090512;28;20020;-75
2022/11/02 03:14:18;;;;;;;7.38;2.17;;;9.40;99.90;;;;;;5091862;28;20024;-75
2022/11/02 03:16:53;;;;;;;5.47;1.60;;;9.30;99.90;;;;;;5080288;28;20044;-75
2022/11/02 03:19:21;;;;;;;8.10;2.00;;;9.30;99.90;;;;;;5089318;28;20508;-75
2022/11/02 03:21:54;;;;;;;6.85;1.83;;;9.20;99.90;;;;;;5088153;28;20546;-75
2022/11/02 03:24:24;;;;;;;6.00;1.67;;;9.20;99.90;;;;;;5090599;28;20031;-74
2022/11/02 03:27:02;;;;;;;;;;;9.20;99.90;;;;;;5089765;28;20029;-75
2022/11/02 03:29:43;;;;;;;5.22;1.52;;;9.20;99.90;;;;;;5091372;28;19907;-73
2022/11/02 03:32:24;;;;;;;5.22;1.60;;;9.30;99.90;;;;;;5091064;28;20431;-75
2022/11/02 03:34:56;;;;;;;7.97;1.77;;;9.40;99.90;;;;;;5084589;28;20044;-74
2022/11/02 03:37:40;;;;;;;6.50;1.80;;;9.50;99.90;;;;;;5091071;28;20579;-75
2022/11/02 03:40:46;;;;;;;4.78;1.60;;;9.60;99.90;;;;;;5090330;28;20017;-75
2022/11/02 03:43:14;;;;;;;7.28;1.40;;;9.70;99.90;;;;;;5028014;28;20530;-75
2022/11/02 03:45:51;;;;;;;6.88;1.27;;;9.80;99.90;;;;;;5031366;28;20033;-75
2022/11/02 03:48:18;;;;;;;11.93;1.80;;;10.00;99.90;;;;;;5014915;28;20029;-76
2022/11/02 03:50:47;;;;;;;7.97;1.58;;;10.10;99.90;;;;;;5029448;28;20092;-76
2022/11/02 03:53:39;;;;;;;8.02;1.50;;;10.20;99.90;;;;;;5031806;28;20040;-76
2022/11/02 03:56:20;;;;;;;5.50;1.83;;;10.30;99.90;;;;;;5031309;28;20052;-76
2022/11/02 03:58:45;;;;;;;5.18;1.33;;;10.40;99.90;;;;;;5032329;28;20101;-76
2022/11/02 04:01:12;;;;;;;6.00;1.90;;;10.40;99.90;;;;;;5031202;28;20041;-76
2022/11/02 04:03:43;;;;;;;6.68;1.88;;;10.50;99.90;;;;;;5032253;28;20036;-76
2022/11/02 04:06:11;;;;;;;6.95;1.75;;;10.50;99.90;;;;;;5031559;28;20029;-76
2022/11/02 04:08:43;;;;;;;7.78;2.00;;;10.60;99.90;;;;;;5025489;28;20041;-75
2022/11/02 04:16:38;;;;;;;6.00;1.52;;;10.80;99.90;;;;;;5094927;28;20119;-74
2022/11/02 04:27:16;;;;;;;2.55;1.20;;;11.00;99.90;;;;;;5080473;28;20034;-76
2022/11/02 04:29:42;;;;;;;8.38;1.73;;;11.10;99.90;;;;;;5093310;28;20520;-75
2022/11/02 04:32:08;;;;;;;6.53;1.45;;;11.10;99.90;;;;;;5074849;28;20063;-75
2022/11/02 04:34:34;;;;;;;6.30;1.17;;;11.10;99.90;;;;;;5094378;28;20052;-76
2022/11/02 04:36:59;;;;;;;7.40;1.70;;;11.00;99.90;;;;;;5108366;28;20042;-78
2022/11/02 04:39:25;;;;;;;5.28;1.35;;;11.10;99.90;;;;;;5106813;28;20028;-77
2022/11/02 04:41:50;;;;;;;8.65;1.55;;;11.00;99.90;;;;;;5105888;28;20093;-76
2022/11/02 04:44:16;;;;;;;11.95;2.20;;;11.10;99.90;;;;;;5099541;28;20024;-77
2022/11/02 04:46:43;;;;;;;2.45;1.05;;;11.00;99.90;;;;;;5096485;28;20028;-75
2022/11/02 04:49:10;;;;;;;5.38;1.33;;;11.00;99.90;;;;;;5095031;28;20024;-75
2022/11/02 04:51:35;;;;;;;9.40;1.60;;;10.90;99.90;;;;;;5075898;28;20074;-79
2022/11/02 04:54:02;;;;;;;7.03;1.20;;;10.90;99.90;;;;;;5079512;28;20424;-76
2022/11/02 04:56:28;;;;;;;5.50;1.70;;;10.90;99.90;;;;;;5091517;28;20538;-75
2022/11/02 04:58:57;;;;;;;9.40;1.60;;;10.90;99.90;;;;;;5075161;28;20103;-77
2022/11/02 05:01:25;;;;;;;4.13;1.17;;;10.80;99.90;;;;;;5089087;28;20008;-74
2022/11/02 05:03:51;;;;;;;4.78;1.35;;;10.90;99.90;;;;;;5071052;28;20465;-74
2022/11/02 05:06:19;;;;;;;8.23;1.40;;;10.90;99.90;;;;;;5091668;28;20027;-75
2022/11/02 05:08:45;;;;;;;5.88;1.33;;;10.90;99.90;;;;;;5092717;28;20028;-76
2022/11/02 05:11:11;;;;;;;6.25;1.25;;;10.90;99.90;;;;;;5091296;28;20088;-74
2022/11/02 05:13:38;;;;;;;6.18;1.42;;;10.90;99.90;;;;;;5074409;28;20414;-77
2022/11/02 05:16:05;;;;;;;8.20;1.80;;;10.80;99.90;;;;;;5091056;28;20350;-76
2022/11/02 05:18:31;;;;;;;7.85;1.70;;;10.80;99.90;;;;;;5092831;28;20020;-73
2022/11/02 05:20:59;;;;;;;2.08;0.95;;;10.80;99.90;;;;;;5090405;28;20028;-77
2022/11/02 05:23:25;;;;;;;5.95;1.95;;;10.80;99.90;;;;;;5088904;28;20074;-78
2022/11/02 05:26:00;;;;;;;6.45;1.30;;;10.80;99.90;;;;;;5092399;28;20490;-75
2022/11/02 05:28:26;;;;;;;9.10;1.50;;;10.80;99.90;;;;;;5072301;28;20076;-76
2022/11/02 05:30:53;;;;;;;5.78;1.27;;;10.80;99.90;;;;;;5092212;28;20028;-75
2022/11/02 05:33:19;;;;;;;7.70;1.48;;;10.90;99.90;;;;;;5091250;28;20469;-73
2022/11/02 05:35:45;;;;;;;4.93;1.60;;;10.80;99.90;;;;;;5091149;28;20389;-76
2022/11/02 05:38:11;;;;;;;4.28;1.40;;;10.80;99.90;;;;;;5089014;28;20023;-77
2022/11/02 05:40:39;;;;;;;4.65;1.30;;;10.80;99.90;;;;;;5086926;28;20024;-77
2022/11/02 05:43:05;;;;;;;8.10;2.00;;;10.80;99.90;;;;;;5073393;28;20028;-74
2022/11/02 05:45:31;;;;;;;6.25;2.10;;;10.80;99.90;;;;;;5091465;28;20024;-75
2022/11/02 05:48:00;;;;;;;4.60;1.17;;;10.80;99.90;;;;;;5073594;28;20035;-75
2022/11/02 05:50:26;;;;;;;5.65;1.65;;;10.70;99.90;;;;;;5091414;28;20100;-75
2022/11/02 05:52:51;;;;;;;5.38;1.23;;;10.70;99.90;;;;;;5091792;28;20103;-75
2022/11/02 05:55:17;;;;;;;7.38;1.73;;;10.60;99.90;;;;;;5090144;28;20474;-75
2022/11/02 05:57:43;;;;;;;6.45;1.67;;;10.60;99.90;;;;;;5085954;28;20028;-76
2022/11/02 06:00:10;;;;;;;9.18;1.70;;;10.50;99.90;;;;;;5090616;28;20027;-76
2022/11/02 06:02:36;;;;;;;8.00;1.60;;;10.50;99.90;;;;;;5092569;28;20501;-75
2022/11/02 06:05:02;;;;;;;6.90;1.58;;;10.50;99.90;;;;;;5091886;28;20047;-77
2022/11/02 06:07:27;;;;;;;9.90;1.65;;;10.50;99.90;;;;;;5092672;28;20626;-74
2022/11/02 06:09:53;;;;;;;6.85;1.50;;;10.60;99.90;;;;;;5092638;28;20028;-74
2022/11/02 06:12:18;;;;;;;11.63;2.00;;;10.60;99.90;;;;;;5092442;28;20076;-73
2022/11/02 06:14:44;;;;;;;7.80;1.75;;;10.60;99.90;;;;;;5089424;28;20085;-76
2022/11/02 06:17:10;;;;;;;6.40;1.45;;;10.70;99.90;;;;;;5092116;28;20034;-77
2022/11/02 06:19:35;;;;;;;10.10;2.17;;;10.70;99.90;;;;;;5091981;28;20020;-77
2022/11/02 06:22:01;;;;;;;8.45;2.03;;;10.70;99.90;;;;;;5092055;28;20051;-79
2022/11/02 06:24:26;;;;;;;7.45;1.73;;;10.80;99.90;;;;;;5073410;28;20051;-74
2022/11/02 06:26:52;;;;;;;4.13;1.50;;;10.90;99.90;;;;;;5092080;28;20024;-74
2022/11/02 06:29:17;;;;;;;8.68;1.48;;;10.90;99.90;;;;;;5091033;28;20056;-74
2022/11/02 06:31:43;;;;;;;10.15;1.83;;;10.90;99.90;;;;;;5087393;28;20549;-74
2022/11/02 06:34:08;;;;;;;9.82;1.67;;;10.90;99.90;;;;;;5090679;28;20020;-76
2022/11/02 06:36:34;;;;;;;7.55;1.55;;;10.90;99.90;;;;;;5091449;28;20484;-75
2022/11/02 06:39:01;;;;;;;7.35;1.42;;;11.00;99.90;;;;;;5091686;28;20083;-78
2022/11/02 06:41:26;;;;;;;5.88;1.63;;;11.00;99.90;;;;;;5091189;28;20060;-74
2022/11/02 06:43:52;;;;;;;5.15;1.63;;;11.00;99.90;;;;;;5091937;28;20454;-74
2022/11/02 06:46:18;;;;;;;7.00;1.83;;;11.10;99.90;;;;;;5090500;28;20036;-75
2022/11/02 06:48:46;;;;;;;11.95;1.88;;;11.20;99.90;;;;;;5087305;28;20024;-75
2022/11/02 06:51:11;;;;;;;9.15;1.90;;;11.30;99.90;;;;;;5090075;28;20028;-74
2022/11/02 06:53:37;;;;;;;7.53;1.88;;;11.40;99.90;;;;;;5091810;28;20020;-74
2022/11/02 06:56:03;;;;;;;7.05;2.00;;;11.50;99.90;;;;;;5089648;28;20103;-76
2022/11/02 06:58:29;;;;;;;9.13;1.70;;;11.60;99.90;;;;;;5091455;28;20035;-73
2022/11/02 07:01:05;;;;;;;11.15;2.00;;;11.70;99.90;;;;;;5091039;28;20031;-74
2022/11/02 07:03:31;;;;;;;8.35;2.25;;;11.80;99.90;;;;;;5090334;28;20024;-76
2022/11/02 07:05:57;;;;;;;10.57;1.88;;;11.90;99.90;;;;;;5087083;28;20043;-75
2022/11/02 07:08:22;;;;;;;8.13;2.28;;;12.00;99.90;;;;;;5090686;28;20127;-73
2022/11/02 07:10:48;;;;;;;9.00;1.70;;;12.10;99.90;;;;;;5091021;28;20378;-79
2022/11/02 07:13:14;;;;;;;11.90;1.83;;;12.10;99.90;;;;;;5090718;28;20076;-73
2022/11/02 07:15:40;;;;;;;10.20;2.33;;;12.20;99.90;;;;;;5090194;28;20039;-75
2022/11/02 07:18:07;;;;;;;5.32;1.30;;;12.30;99.90;;;;;;5090329;28;20473;-75
2022/11/02 07:20:34;;;;;;;8.32;1.70;;;12.30;99.90;;;;;;5091926;28;20449;-68
2022/11/02 07:23:00;;;;;;;8.63;1.42;;;12.30;99.90;;;;;;5091239;28;20032;-68
2022/11/02 07:25:29;;;;;;;6.30;1.50;;;12.40;99.90;;;;;;5094874;28;20110;-68
2022/11/02 07:27:55;;;;;;;8.23;1.43;;;12.40;99.90;;;;;;5070937;28;20036;-73
2022/11/02 07:30:21;;;;;;;8.70;1.60;;;12.50;99.90;;;;;;5089949;28;20020;-73
2022/11/02 07:32:47;;;;;;;4.80;1.35;;;12.50;99.90;;;;;;5092255;28;20314;-73
2022/11/02 07:35:14;;;;;;;10.27;2.22;;;12.60;99.90;;;;;;5085061;28;20052;-73
2022/11/02 07:37:40;;;;;;;13.95;2.38;;;12.70;99.90;;;;;;5094779;28;20038;-73
2022/11/02 07:40:07;;;;;;;9.57;2.65;;;12.70;99.90;;;;;;5093675;28;20373;-74
2022/11/02 07:42:34;;;;;;;9.73;2.22;;;12.80;99.90;;;;;;5094838;28;20453;-74
2022/11/02 07:44:59;;;;;;;8.77;1.60;;;12.90;99.90;;;;;;5093626;28;20452;-78
2022/11/02 07:47:25;;;;;;;7.38;1.50;;;12.90;99.90;;;;;;5091881;28;20028;-73
2022/11/02 07:49:51;;;;;;;13.57;1.98;;;13.00;99.90;;;;;;5094299;28;20085;-74
2022/11/02 07:52:17;;;;;;;9.20;2.45;;;13.00;99.90;;;;;;5093536;28;20028;-74
2022/11/02 07:54:42;;;;;;;7.00;1.83;;;13.10;99.90;;;;;;5094041;28;20024;-74
2022/11/02 07:57:08;;;;;;;4.72;1.30;;;13.10;99.90;;;;;;5067707;28;20127;-74
2022/11/02 07:59:35;;;;;;;9.07;2.05;;;13.10;99.90;;;;;;5093749;28;20029;-73
2022/11/02 08:02:01;;;;;;;8.82;2.00;;;13.20;99.90;;;;;;5091362;28;20051;-77
2022/11/02 08:04:26;;;;;;;4.70;1.52;;;13.20;99.90;;;;;;5093576;28;20020;-73
2022/11/02 08:06:52;;;;;;;7.97;1.63;;;13.20;99.90;;;;;;5093466;28;20487;-72
2022/11/02 08:09:18;;;;;;;5.65;1.75;;;13.30;99.90;;;;;;5093267;28;20453;-73
2022/11/02 08:11:44;;;;;;;10.40;2.58;;;13.40;99.90;;;;;;5094012;28;20020;-73
2022/11/02 08:14:09;;;;;;;7.97;1.83;;;13.40;99.90;;;;;;5092877;28;20056;-73
2022/11/02 08:16:36;;;;;;;7.32;2.08;;;13.50;99.90;;;;;;5094291;28;20103;-74
2022/11/02 08:19:01;;;;;;;12.07;1.70;;;13.60;99.90;;;;;;5093707;28;20020;-77
2022/11/02 08:21:27;;;;;;;7.78;1.65;;;13.60;99.90;;;;;;5093631;28;20031;-75
2022/11/02 08:23:54;;;;;;;6.43;1.40;;;13.70;99.90;;;;;;5093675;28;20024;-73
2022/11/02 08:26:20;;;;;;;5.70;1.55;;;;;;;;;;5092776;28;20035;-74
2022/11/02 08:28:46;;;;;;;9.73;1.73;;;;;;;;;;5094010;28;20436;-75
2022/11/02 08:31:17;;;;;;;3.72;1.40;;;;;;;;;;5092162;28;20162;-75
2022/11/02 08:33:44;;;;;;;6.93;1.60;;;14.00;99.90;;;;;;5093914;28;20100;-73
2022/11/02 08:36:10;;;;;;;10.35;1.77;;;14.10;99.90;;;;;;5092306;28;20047;-74
2022/11/02 08:38:36;;;;;;;7.43;1.75;;;14.20;99.90;;;;;;5093534;28;20452;-73
2022/11/02 08:41:02;;;;;;;5.82;1.48;;;14.30;99.90;;;;;;5092952;28;20473;-77
2022/11/02 08:43:28;;;;;;;6.63;1.70;;;14.40;99.90;;;;;;5093635;28;20100;-74
2022/11/02 08:45:57;;;;;;;9.32;1.60;;;14.50;99.90;;;;;;5093479;28;20032;-74
2022/11/02 08:48:23;;;;;;;6.67;2.30;;;14.60;99.90;;;;;;5092730;28;20067;-74
2022/11/02 08:50:49;;;;;;;6.90;1.58;;;14.60;99.90;;;;;;5093154;28;20615;-74
2022/11/02 08:53:14;;;;;;;7.53;1.45;;;14.70;99.90;;;;;;5092498;28;20102;-74
2022/11/02 08:55:40;;;;;;;8.85;1.90;;;14.60;99.90;;;;;;5092897;28;20036;-74
2022/11/02 08:58:05;;;;;;;7.85;1.88;;;14.60;99.90;;;;;;5074367;28;20416;-75
2022/11/02 09:00:33;;;;;;;5.75;1.48;;;14.70;99.90;;;;;;5092919;28;20166;-75
2022/11/02 09:03:03;;;;;;;8.88;1.58;;;14.70;99.90;;;;;;5093253;28;20024;-73
2022/11/02 09:05:31;;;;;;;6.97;1.50;;;14.80;99.90;;;;;;5092705;28;20032;-74
2022/11/02 09:07:59;;;;;;;6.80;1.30;;;14.90;99.90;;;;;;5093272;28;20028;-74
2022/11/02 09:10:27;;;;;;;5.45;1.35;;;14.90;99.90;;;;;;5092030;28;20024;-74
2022/11/02 09:12:53;;;;;;;9.13;2.22;;;15.00;99.90;;;;;;5093367;28;20444;-75
2022/11/02 09:15:18;;;;;;;5.57;1.50;;;15.00;99.90;;;;;;5091608;28;20134;-74
2022/11/02 09:17:48;;;;;;;4.22;1.45;;;14.90;99.90;;;;;;5093243;28;20036;-74
2022/11/02 09:20:15;;;;;;;7.78;1.55;;;14.90;99.90;;;;;;5092011;28;20026;-74
2022/11/02 09:22:41;;;;;;;6.93;1.35;;;14.90;99.90;;;;;;5092738;28;20082;-74
2022/11/02 09:25:07;;;;;;;8.60;1.73;;;14.90;99.90;;;;;;5091142;28;20024;-74
2022/11/02 09:27:33;;;;;;;13.25;1.60;;;14.90;99.90;;;;;;5092742;28;20103;-73
2022/11/02 09:29:58;;;;;;;5.85;1.38;;;14.90;99.90;;;;;;5092453;28;20099;-73
2022/11/02 09:32:24;;;;;;;7.88;1.52;;;15.00;99.90;;;;;;5092470;28;20052;-73
2022/11/02 09:34:51;;;;;;;8.63;1.80;;;15.00;99.90;;;;;;5091706;28;20101;-73
2022/11/02 09:37:16;;;;;;;7.50;1.48;;;15.10;99.90;;;;;;5092079;28;20111;-73
2022/11/02 09:39:42;;;;;;;8.73;1.58;;;15.10;99.90;;;;;;5091877;28;20107;-73
2022/11/02 09:42:43;;;;;;;7.38;1.48;;;15.20;99.90;;;;;;5092370;28;20081;-75
2022/11/02 09:45:16;;;;;;;8.30;1.63;;;15.20;99.90;;;;;;5073364;28;20494;-75
2022/11/02 09:47:46;;;;;;;4.45;1.20;;;15.30;99.90;;;;;;5093048;28;20028;-75
2022/11/02 09:50:18;;;;;;;8.65;2.17;;;15.30;99.90;;;;;;5091040;28;20099;-75
2022/11/02 09:52:49;;;;;;;4.28;1.27;;;15.40;99.90;;;;;;5092898;28;20458;-74
2022/11/02 09:55:21;;;;;;;9.15;1.58;;;15.40;99.90;;;;;;5091065;28;20035;-74
2022/11/02 09:57:53;;;;;;;9.82;1.70;;;15.40;99.90;;;;;;5092382;28;20032;-74
2022/11/02 10:00:19;;;;;;;5.57;1.55;;;15.50;99.90;;;;;;5091001;28;20024;-74
2022/11/02 10:03:09;;;;;;;6.38;1.42;;;15.60;99.90;;;;;;5092218;28;20035;-74
2022/11/02 10:06:00;;;;;;;11.65;1.60;;;15.70;99.90;;;;;;5091606;28;20107;-75
2022/11/02 10:08:29;;;;;;;9.02;1.92;;;15.70;99.90;;;;;;5078294;28;20066;-75
2022/11/02 10:11:05;;;;;;;8.63;2.05;;;15.80;99.90;;;;;;5091451;28;20032;-74
2022/11/02 10:13:45;;;;;;;8.75;1.67;;;15.70;99.90;;;;;;5092185;28;20107;-74
2022/11/02 10:16:36;;;;;;;9.23;2.05;;;15.70;99.90;;;;;;5080731;28;20036;-74
2022/11/02 10:19:02;;;;;;;;;;;15.70;99.90;;;;;;5096168;28;20491;-78
2022/11/02 10:21:32;;;;;;;4.78;1.40;;;15.60;99.90;;;;;;5092343;28;19911;-74
2022/11/02 10:24:08;;;;;;;7.68;1.77;;;15.60;99.90;;;;;;5091514;28;20032;-74
2022/11/02 10:26:35;;;;;;;8.40;1.55;;;15.60;99.90;;;;;;5091582;28;20373;-75
2022/11/02 10:29:20;;;;;;;5.47;1.88;;;15.60;99.90;;;;;;5091303;28;20379;-77
2022/11/02 10:31:47;;;;;;;9.73;1.83;;;15.60;99.90;;;;;;5100851;28;20020;-74
2022/11/02 10:34:23;;;;;;;10.13;1.75;;;15.60;99.90;;;;;;5075162;28;20027;-74
2022/11/02 10:36:52;;;;;;;7.22;1.40;;;15.60;99.90;;;;;;5091465;28;20111;-75
2022/11/02 10:39:46;;;;;;;10.65;1.45;;;15.60;99.90;;;;;;5086987;28;20066;-75
2022/11/02 10:42:28;;;;;;;13.77;2.20;;;15.70;99.90;;;;;;5091031;28;20048;-74
2022/11/02 10:45:19;;;;;;;6.13;1.40;;;15.70;99.90;;;;;;5072687;28;20024;-74
2022/11/02 10:47:59;;;;;;;;;;;15.60;99.90;;;;;;5073781;28;20460;-76
2022/11/02 10:50:45;;;;;;;29.83;2.30;;;15.60;99.90;;;;;;5090454;28;20341;-74
2022/11/02 10:53:17;;;;;;;6.10;1.73;;;15.50;99.90;;;;;;5090087;28;20032;-75
2022/11/02 10:55:57;;;;;;;6.57;1.20;;;15.60;99.90;;;;;;5084989;28;20044;-75
2022/11/02 10:58:26;;;;;;;7.28;2.05;;;15.60;99.90;;;;;;5090170;28;20364;-74
2022/11/02 11:01:04;;;;;;;6.97;1.75;;;15.60;99.90;;;;;;5079256;28;20054;-74
2022/11/02 11:03:29;;;;;;;5.25;1.52;;;15.60;99.90;;;;;;5085706;28;20099;-70
2022/11/02 11:06:01;;;;;;;7.82;1.52;;;15.50;99.90;;;;;;5088546;28;20115;-70
2022/11/02 11:08:45;;;;;;;8.38;1.75;;;15.50;99.90;;;;;;5090084;28;20016;-70
2022/11/02 11:11:23;;;;;;;7.05;1.60;;;15.50;99.90;;;;;;5088700;28;20024;-70
2022/11/02 11:13:56;;;;;;;9.43;1.90;;;15.50;99.90;;;;;;5086811;28;20089;-71
2022/11/02 11:16:42;;;;;;;12.10;1.83;;;15.50;99.90;;;;;;5089153;28;20627;-71
2022/11/02 11:19:37;;;;;;;11.07;2.00;;;15.50;99.90;;;;;;5089958;28;20026;-71
2022/11/02 11:22:39;;;;;;;7.93;1.85;;;15.40;99.90;;;;;;5090598;28;20465;-77
2022/11/02 11:25:11;;;;;;;8.52;1.83;;;15.40;99.90;;;;;;5089102;28;20028;-70
2022/11/02 11:27:51;;;;;;;11.07;1.50;;;15.20;99.90;;;;;;5091243;28;20517;-70
2022/11/02 11:30:28;;;;;;;6.93;2.13;;;15.20;99.90;;;;;;5083869;28;20029;-70
2022/11/02 11:32:55;;;;;;;8.85;1.60;;;15.10;99.90;;;;;;5090834;28;20037;-70
2022/11/02 11:35:23;;;;;;;7.57;1.75;;;15.00;99.90;;;;;;5089409;28;20051;-70
2022/11/02 11:38:05;;;;;;;8.23;1.98;;;15.00;99.90;;;;;;5091172;28;20111;-70
2022/11/02 11:40:35;;;;;;;7.82;1.60;;;15.00;99.90;;;;;;5090365;28;20024;-69
2022/11/02 11:43:04;;;;;;;8.32;1.60;;;15.00;99.90;;;;;;5090363;28;20111;-75
2022/11/02 11:45:31;;;;;;;6.30;1.45;;;15.00;99.90;;;;;;5086912;28;20537;-71
2022/11/02 11:47:57;;;;;;;6.88;1.88;;;15.10;99.90;;;;;;5086298;28;20024;-72
2022/11/02 11:50:23;;;;;;;7.75;1.48;;;15.20;99.90;;;;;;5090269;28;20035;-72
2022/11/02 11:53:25;;;;;;;8.93;1.73;;;15.40;99.90;;;;;;5090523;28;20092;-71
2022/11/02 11:55:57;;;;;;;4.63;1.33;;;15.60;99.90;;;;;;5089611;28;20036;-72
2022/11/02 11:58:25;;;;;;;7.15;2.17;;;15.80;99.90;;;;;;5095121;28;20645;-72
2022/11/02 12:01:16;;;;;;;6.25;1.60;;;16.00;99.90;;;;;;5088313;28;20051;-70
2022/11/02 12:03:59;;;;;;;;;;;16.10;99.90;;;;;;5091089;28;20051;-75
2022/11/02 12:06:40;;;;;;;5.53;1.38;;;16.20;99.90;;;;;;5098424;28;19908;-74
2022/11/02 12:09:35;;;;;;;7.18;1.42;;;16.20;99.90;;;;;;5099708;28;20019;-72
2022/11/02 12:12:33;;;;;;;7.55;1.65;;;16.20;99.90;;;;;;5103587;28;20058;-76
2022/11/02 12:15:30;;;;;;;5.70;1.85;;;16.10;99.90;;;;;;5100321;28;20110;-74
2022/11/02 12:18:32;;;;;;;9.55;2.28;;;16.00;99.90;;;;;;5091193;28;20534;-70
2022/11/02 12:21:14;;;;;;;5.97;1.40;;;15.90;99.90;;;;;;5093452;28;20393;-70
2022/11/02 12:24:15;;;;;;;7.70;1.95;;;15.70;99.90;;;;;;5093955;28;20042;-71
2022/11/02 12:26:56;;;;;;;4.03;1.45;;;15.70;99.90;;;;;;5093624;28;20063;-71
2022/11/02 12:29:30;;;;;;;8.13;2.08;;;15.80;99.90;;;;;;5093124;28;20039;-71
2022/11/02 12:32:02;;;;;;;5.57;1.35;;;16.10;99.90;;;;;;5093857;28;20035;-71
2022/11/02 12:34:57;;;;;;;8.02;1.75;;;16.30;99.90;;;;;;5091850;28;20059;-71
2022/11/02 12:37:51;;;;;;;4.40;1.10;;;16.80;99.90;;;;;;5092970;28;20119;-71
2022/11/02 12:40:32;;;;;;;4.07;1.60;;;17.30;99.70;;;;;;5092339;28;20106;-71
2022/11/02 12:43:36;;;;;;;7.45;1.52;;;17.80;99.10;;;;;;5093205;28;20035;-70
2022/11/02 12:46:25;;;;;;;9.63;1.83;;;18.20;97.70;;;;;;5092050;28;20127;-74
2022/11/02 12:49:42;;;;;;;6.68;1.50;;;18.60;96.50;;;;;;5093075;28;20077;-70
2022/11/02 12:52:12;;;;;;;8.95;1.73;;;;;;;;;;5021264;28;20113;-70
2022/11/02 12:54:42;;;;;;;8.05;1.80;;;;;;;;;;5080127;28;20064;-71
2022/11/02 12:57:13;;;;;;;4.30;1.50;;;;;;;;;;5066521;28;20028;-71
2022/11/02 12:59:41;;;;;;;11.50;2.60;;;;;;;;;;5092530;28;20024;-71
2022/11/02 13:02:19;;;;;;;7.05;2.10;;;;;;;;;;5091984;28;20016;-71
2022/11/02 13:04:55;;;;;;;4.80;1.70;;;;;;;;;;5092517;28;20024;-70
2022/11/02 13:07:38;;;;;;;5.97;1.65;;;;;;;;;;5092044;28;20030;-71
2022/11/02 13:10:07;;;;;;;5.63;1.75;;;;;;;;;;5091595;28;20027;-76
2022/11/02 13:12:40;;;;;;;6.03;1.42;;;;;;;;;;5092818;28;20031;-71
2022/11/02 13:15:13;;;;;;;5.88;1.77;;;;;;;;;;5091640;28;20024;-71
2022/11/02 13:17:39;;;;;;;7.03;1.88;;;;;;;;;;5092539;28;20041;-71
2022/11/02 13:20:12;;;;;;;5.53;1.60;;;;;;;;;;5089640;28;20028;-71
2022/11/02 13:22:40;;;;;;;7.93;1.55;;;;;;;;;;5092652;28;20056;-70
2022/11/02 13:25:16;;;;;;;7.30;1.52;;;;;;;;;;5091146;28;20023;-71
2022/11/02 13:27:48;;;;;;;8.77;1.85;;;;;;;;;;5074537;28;20020;-71
2022/11/02 13:30:15;;;;;;;5.22;1.45;;;;;;;;;;5091797;28;20097;-71